Time;durP1;ratioP1;P1;durP2;ratioP2;P2;SDS_P1;SDS_P2;PMS_P1;PMS_P2;Temp;Humidity;BMP_temperature;BMP_pressure;BME280_temperature;BME280_humidity;BME280_pressure;Samples;Min_cycle;Max_cycle;Signal;HPM_P1;HPM_P2
2021/05/07 00:01:41;;;;;;;28.75;15.32;;;9.00;70.70;;;;;;4976259;28;20043;-86
2021/05/07 00:04:07;;;;;;;33.92;16.40;;;9.00;70.70;;;;;;4974665;28;20088;-87
2021/05/07 00:06:33;;;;;;;28.27;15.10;;;9.00;70.80;;;;;;4976190;28;20152;-86
2021/05/07 00:09:03;;;;;;;27.90;14.82;;;9.00;70.70;;;;;;4975321;28;20504;-87
2021/05/07 00:11:31;;;;;;;34.90;16.45;;;8.90;70.60;;;;;;4976942;28;20474;-86
2021/05/07 00:13:57;;;;;;;32.70;17.88;;;8.90;70.60;;;;;;5011179;28;20073;-87
2021/05/07 00:16:22;;;;;;;33.03;15.68;;;8.80;70.70;;;;;;4979725;28;20058;-87
2021/05/07 00:18:48;;;;;;;28.00;15.35;;;8.80;70.90;;;;;;4979597;28;20023;-84
2021/05/07 00:21:14;;;;;;;25.00;14.48;;;8.70;70.90;;;;;;4978142;28;20022;-84
2021/05/07 00:23:39;;;;;;;27.10;14.88;;;8.70;70.90;;;;;;4979400;28;20070;-83
2021/05/07 00:26:05;;;;;;;27.10;15.20;;;8.70;70.90;;;;;;4993884;28;20023;-82
2021/05/07 00:28:31;;;;;;;27.60;16.55;;;8.70;71.10;;;;;;4993532;28;20118;-85
2021/05/07 00:30:57;;;;;;;25.42;15.80;;;8.60;71.10;;;;;;4980356;28;20466;-84
2021/05/07 00:33:23;;;;;;;26.38;16.35;;;8.60;71.50;;;;;;4979083;28;20033;-82
2021/05/07 00:35:49;;;;;;;26.20;15.93;;;8.60;71.60;;;;;;5010807;28;20027;-83
2021/05/07 00:38:15;;;;;;;26.50;16.63;;;8.60;71.70;;;;;;5010382;28;20019;-83
2021/05/07 00:40:41;;;;;;;25.30;16.00;;;8.50;71.90;;;;;;4980103;28;20031;-83
2021/05/07 00:43:06;;;;;;;23.38;14.40;;;8.50;72.10;;;;;;4978900;28;20035;-83
2021/05/07 00:45:32;;;;;;;25.92;15.70;;;8.50;72.30;;;;;;5010727;28;20029;-90
2021/05/07 00:48:00;;;;;;;23.15;15.10;;;8.40;72.50;;;;;;5010680;28;20043;-89
2021/05/07 00:50:28;;;;;;;25.30;15.35;;;8.40;72.70;;;;;;5013069;28;20482;-88
2021/05/07 00:52:59;;;;;;;22.80;14.48;;;8.30;72.90;;;;;;5010972;28;20557;-88
2021/05/07 00:55:25;;;;;;;24.30;14.35;;;8.20;73.10;;;;;;4979256;28;20046;-88
2021/05/07 00:57:51;;;;;;;42.22;21.90;;;8.10;73.20;;;;;;5010517;28;20027;-88
2021/05/07 01:00:18;;;;;;;41.65;22.95;;;8.10;73.40;;;;;;5019764;28;20030;-84
2021/05/07 01:02:43;;;;;;;40.92;22.05;;;8.00;73.50;;;;;;5000629;28;20021;-86
2021/05/07 01:05:10;;;;;;;30.85;16.92;;;8.00;73.80;;;;;;4982264;28;20513;-87
2021/05/07 01:07:36;;;;;;;29.98;16.48;;;8.00;74.00;;;;;;4979716;28;20430;-86
2021/05/07 01:10:05;;;;;;;28.25;16.55;;;8.00;74.20;;;;;;4978119;28;20023;-86
2021/05/07 01:12:32;;;;;;;30.00;17.45;;;7.90;74.50;;;;;;5011071;28;20023;-86
2021/05/07 01:15:10;;;;;;;31.40;17.70;;;7.90;74.50;;;;;;4979096;28;20027;-87
2021/05/07 01:17:50;;;;;;;28.25;17.25;;;7.90;74.80;;;;;;5010025;28;20093;-82
2021/05/07 01:20:26;;;;;;;24.58;14.35;;;7.90;75.00;;;;;;4978352;28;20023;-83
2021/05/07 01:23:00;;;;;;;22.15;12.40;;;7.80;75.00;;;;;;5009709;28;20093;-83
2021/05/07 01:25:28;;;;;;;21.38;12.50;;;7.90;74.90;;;;;;4977949;28;20034;-83
2021/05/07 01:28:06;;;;;;;22.55;13.93;;;7.80;74.80;;;;;;5009439;28;20077;-82
2021/05/07 01:30:40;;;;;;;22.50;12.90;;;7.90;74.90;;;;;;5009552;28;20504;-83
2021/05/07 01:33:07;;;;;;;24.83;14.15;;;7.90;74.90;;;;;;5009413;28;20035;-82
2021/05/07 01:35:35;;;;;;;27.45;17.63;;;7.90;74.90;;;;;;4990661;28;20033;-82
2021/05/07 01:38:03;;;;;;;32.00;19.25;;;7.80;74.90;;;;;;4995269;28;20435;-82
2021/05/07 01:40:37;;;;;;;26.35;16.05;;;7.80;74.90;;;;;;4980299;28;20365;-90
2021/05/07 01:43:04;;;;;;;23.73;14.82;;;7.80;75.10;;;;;;4979354;28;20030;-89
2021/05/07 01:45:32;;;;;;;22.33;14.52;;;7.80;75.10;;;;;;4978585;28;20031;-90
2021/05/07 01:47:58;;;;;;;21.38;13.65;;;7.70;75.10;;;;;;5009870;28;20027;-90
2021/05/07 01:50:26;;;;;;;22.75;14.15;;;7.70;75.20;;;;;;5009616;28;20054;-89
2021/05/07 01:52:54;;;;;;;16.48;12.75;;;7.70;75.30;;;;;;5009723;28;20222;-90
2021/05/07 01:55:25;;;;;;;23.35;13.07;;;7.60;75.30;;;;;;5009541;28;20101;-91
2021/05/07 01:57:51;;;;;;;29.45;14.38;;;7.60;75.50;;;;;;5012069;28;20022;-86
2021/05/07 02:00:22;;;;;;;24.20;15.77;;;7.60;75.60;;;;;;5020140;28;20023;-87
2021/05/07 02:02:49;;;;;;;36.65;17.08;;;7.50;76.40;;;;;;4979264;28;20027;-88
2021/05/07 02:05:18;;;;;;;28.52;17.67;;;7.50;75.90;;;;;;4978493;28;20440;-87
2021/05/07 02:07:47;;;;;;;33.05;17.92;;;7.50;76.20;;;;;;4978454;28;20019;-88
2021/05/07 02:10:18;;;;;;;26.65;16.35;;;7.40;76.40;;;;;;4989224;28;20062;-88
2021/05/07 02:12:44;;;;;;;29.75;18.00;;;7.40;76.60;;;;;;4996648;28;20031;-89
2021/05/07 02:15:14;;;;;;;29.85;19.65;;;7.40;76.70;;;;;;4980013;28;20029;-88
2021/05/07 02:17:40;;;;;;;29.63;18.88;;;7.40;76.90;;;;;;4978361;28;20030;-89
2021/05/07 02:20:08;;;;;;;28.40;18.77;;;7.40;77.10;;;;;;4977849;28;20023;-88
2021/05/07 02:22:33;;;;;;;25.75;18.23;;;7.40;77.20;;;;;;4976984;28;20474;-88
2021/05/07 02:24:59;;;;;;;34.20;19.23;;;7.30;77.40;;;;;;5007856;28;20030;-87
2021/05/07 02:27:25;;;;;;;29.70;20.30;;;7.30;77.50;;;;;;4977122;28;20046;-86
2021/05/07 02:29:51;;;;;;;32.55;20.20;;;7.40;77.60;;;;;;5008394;28;20155;-86
2021/05/07 02:32:17;;;;;;;39.08;23.02;;;7.40;77.60;;;;;;4976249;28;20058;-88
2021/05/07 02:34:42;;;;;;;41.78;23.60;;;7.40;77.60;;;;;;5007864;28;20023;-86
2021/05/07 02:37:09;;;;;;;37.38;22.30;;;7.50;77.70;;;;;;4975855;28;20030;-86
2021/05/07 02:39:35;;;;;;;39.20;21.73;;;7.50;78.10;;;;;;5008574;28;20018;-86
2021/05/07 02:42:01;;;;;;;36.95;21.20;;;7.90;79.30;;;;;;5008071;28;20109;-87
2021/05/07 02:44:27;;;;;;;34.28;21.05;;;8.60;79.60;;;;;;4977316;28;20054;-86
2021/05/07 02:46:53;;;;;;;35.03;21.05;;;9.30;78.80;;;;;;4980783;28;20030;-88
2021/05/07 02:49:18;;;;;;;32.72;20.58;;;10.00;77.70;;;;;;4996841;28;20023;-89
2021/05/07 02:51:44;;;;;;;32.55;18.65;;;10.90;76.20;;;;;;4989521;28;20038;-91
2021/05/07 02:54:10;;;;;;;33.95;20.15;;;11.70;74.30;;;;;;4980476;28;20026;-90
2021/05/07 02:56:35;;;;;;;34.97;19.45;;;12.60;72.10;;;;;;5013442;28;20122;-88
2021/05/07 02:59:01;;;;;;;26.35;17.98;;;13.40;70.00;;;;;;4985277;28;20043;-86
2021/05/07 03:01:27;;;;;;;26.13;16.88;;;14.30;67.70;;;;;;4983689;28;20019;-86
2021/05/07 03:03:53;;;;;;;30.25;16.40;;;15.10;65.30;;;;;;4976893;28;20078;-87
2021/05/07 03:06:19;;;;;;;32.78;18.10;;;16.00;63.20;;;;;;4976339;28;20430;-87
2021/05/07 03:08:44;;;;;;;35.10;16.83;;;16.80;61.10;;;;;;4976556;28;20027;-87
2021/05/07 03:11:10;;;;;;;30.10;16.08;;;17.60;59.00;;;;;;4976059;28;20035;-90
2021/05/07 03:13:36;;;;;;;25.83;15.63;;;18.40;57.00;;;;;;5007706;28;20054;-89
2021/05/07 03:16:02;;;;;;;30.70;16.17;;;19.20;55.00;;;;;;4976621;28;20073;-89
2021/05/07 03:18:28;;;;;;;23.30;15.88;;;20.00;53.10;;;;;;5008185;28;20030;-89
2021/05/07 03:20:55;;;;;;;25.67;13.05;;;20.70;51.40;;;;;;4976323;28;20429;-90
2021/05/07 03:23:21;;;;;;;21.17;11.93;;;21.30;49.30;;;;;;5006782;28;20481;-87
2021/05/07 03:25:47;;;;;;;19.17;12.75;;;21.90;47.70;;;;;;4996921;28;20014;-86
2021/05/07 03:28:13;;;;;;;21.73;13.23;;;22.40;46.10;;;;;;5017698;28;20383;-86
2021/05/07 03:30:39;;;;;;;25.80;15.63;;;23.00;44.90;;;;;;4975796;28;20031;-86
2021/05/07 03:33:06;;;;;;;30.65;13.68;;;23.60;43.80;;;;;;4977104;28;20034;-88
2021/05/07 03:35:34;;;;;;;20.05;12.68;;;24.00;43.20;;;;;;5007138;28;20133;-89
2021/05/07 03:38:01;;;;;;;15.98;11.80;;;24.40;41.60;;;;;;5006839;28;20034;-86
2021/05/07 03:40:27;;;;;;;14.60;9.48;;;24.60;40.70;;;;;;4975806;28;20022;-86
2021/05/07 03:42:53;;;;;;;15.20;10.50;;;25.00;40.80;;;;;;4974387;28;20037;-87
2021/05/07 03:45:19;;;;;;;15.60;10.10;;;25.40;39.40;;;;;;5007313;28;20027;-87
2021/05/07 03:47:45;;;;;;;16.10;10.15;;;26.00;38.90;;;;;;5011373;28;20130;-88
2021/05/07 03:50:12;;;;;;;14.65;9.10;;;26.60;38.20;;;;;;4981341;28;20035;-87
2021/05/07 03:52:38;;;;;;;12.23;9.68;;;27.10;37.40;;;;;;4979980;28;20351;-88
2021/05/07 03:55:06;;;;;;;15.05;10.75;;;27.40;36.60;;;;;;4978607;28;20027;-89
2021/05/07 03:57:32;;;;;;;19.25;11.40;;;27.90;36.20;;;;;;5009573;28;20023;-87
2021/05/07 03:59:58;;;;;;;18.20;12.68;;;28.10;35.70;;;;;;4974518;28;20030;-88
2021/05/07 04:02:24;;;;;;;19.30;11.75;;;28.40;35.30;;;;;;4975085;28;20023;-87
2021/05/07 04:04:51;;;;;;;19.00;13.25;;;28.80;35.10;;;;;;4991442;28;20066;-88
2021/05/07 04:07:17;;;;;;;20.65;11.98;;;29.10;34.80;;;;;;5019645;28;20066;-88
2021/05/07 04:09:59;;;;;;;18.40;12.07;;;29.30;34.50;;;;;;4983920;28;20034;-87
2021/05/07 04:14:56;;;;;;;21.50;12.48;;;29.10;34.00;;;;;;4996683;28;20046;-88
2021/05/07 04:17:22;;;;;;;18.55;12.52;;;28.60;34.00;;;;;;4993909;28;20030;-87
2021/05/07 04:19:47;;;;;;;22.33;12.93;;;28.30;34.20;;;;;;5026077;28;20142;-88
2021/05/07 04:22:13;;;;;;;17.20;11.10;;;28.00;34.50;;;;;;4989118;28;20025;-84
2021/05/07 04:24:39;;;;;;;16.48;11.25;;;28.20;34.50;;;;;;5021780;28;20061;-87
2021/05/07 04:27:05;;;;;;;16.60;10.25;;;28.60;34.40;;;;;;4979088;28;20452;-88
2021/05/07 04:29:31;;;;;;;18.95;11.00;;;29.10;34.30;;;;;;5011651;28;20090;-89
2021/05/07 04:31:58;;;;;;;21.10;12.85;;;29.60;34.10;;;;;;4978695;28;20397;-88
2021/05/07 04:34:24;;;;;;;18.63;10.20;;;30.10;33.70;;;;;;5012231;28;20037;-88
2021/05/07 04:36:50;;;;;;;12.93;9.15;;;30.30;33.20;;;;;;4978975;28;20102;-89
2021/05/07 04:39:16;;;;;;;18.13;9.50;;;30.30;33.00;;;;;;4981001;28;20054;-88
2021/05/07 04:41:41;;;;;;;10.43;8.55;;;30.30;33.00;;;;;;5021950;28;20059;-89
2021/05/07 04:44:07;;;;;;;14.35;9.13;;;30.00;32.70;;;;;;5026086;28;20035;-89
2021/05/07 04:46:33;;;;;;;14.73;8.35;;;29.50;33.10;;;;;;4988200;28;20046;-89
2021/05/07 04:48:59;;;;;;;11.10;7.70;;;29.40;33.50;;;;;;5008157;28;20035;-89
2021/05/07 04:51:24;;;;;;;12.95;7.88;;;29.70;33.60;;;;;;4992213;28;20034;-88
2021/05/07 04:53:50;;;;;;;13.95;7.65;;;30.20;33.40;;;;;;4992312;28;20473;-90
2021/05/07 04:56:16;;;;;;;11.93;7.75;;;30.90;32.90;;;;;;4976101;28;20059;-90
2021/05/07 04:58:41;;;;;;;12.77;7.50;;;31.50;32.50;;;;;;4976358;28;20089;-87
2021/05/07 05:01:07;;;;;;;18.13;7.57;;;32.10;32.10;;;;;;4995200;28;20093;-87
2021/05/07 05:03:33;;;;;;;12.55;6.20;;;32.60;31.70;;;;;;4994599;28;20026;-87
2021/05/07 05:05:59;;;;;;;6.63;4.72;;;33.00;31.30;;;;;;4993346;28;20069;-87
2021/05/07 05:08:25;;;;;;;10.00;4.63;;;33.40;30.70;;;;;;4994081;28;20027;-87
2021/05/07 05:10:58;;;;;;;8.63;5.20;;;33.70;30.40;;;;;;4994041;28;20501;-87
2021/05/07 05:13:25;;;;;;;8.90;4.93;;;34.10;30.10;;;;;;4978043;28;20041;-91
2021/05/07 05:15:54;;;;;;;17.27;5.15;;;34.50;30.10;;;;;;4994765;28;20443;-89
2021/05/07 05:18:31;;;;;;;12.48;5.22;;;34.80;29.90;;;;;;4994978;28;20073;-90
2021/05/07 05:21:01;;;;;;;10.38;4.57;;;35.20;29.70;;;;;;4979614;28;20050;-91
2021/05/07 05:23:28;;;;;;;8.80;4.53;;;35.50;29.50;;;;;;4997360;28;20058;-93
2021/05/07 05:25:54;;;;;;;7.53;4.72;;;35.80;29.30;;;;;;5025267;28;20031;-84
2021/05/07 05:28:20;;;;;;;7.55;4.47;;;35.90;29.10;;;;;;4976724;28;20078;-81
2021/05/07 05:30:47;;;;;;;7.38;4.35;;;36.00;28.90;;;;;;4975091;28;20129;-83
2021/05/07 05:33:13;;;;;;;6.97;4.13;;;36.20;28.70;;;;;;5006392;28;20069;-82
2021/05/07 05:35:39;;;;;;;10.07;4.85;;;36.20;28.60;;;;;;4974963;28;20062;-82
2021/05/07 05:38:04;;;;;;;9.50;4.45;;;36.50;28.70;;;;;;4975003;28;20033;-82
2021/05/07 05:40:31;;;;;;;5.88;4.28;;;36.80;28.70;;;;;;4975699;28;20042;-84
2021/05/07 05:42:57;;;;;;;6.15;4.40;;;37.00;28.50;;;;;;4976502;28;20458;-86
2021/05/07 05:45:24;;;;;;;5.72;4.45;;;37.40;28.20;;;;;;4975332;28;20114;-85
2021/05/07 05:48:14;;;;;;;6.55;5.25;;;37.70;27.80;;;;;;5006719;28;20030;-86
2021/05/07 05:50:48;;;;;;;9.02;4.55;;;38.10;27.80;;;;;;5008916;28;20023;-86
2021/05/07 05:53:14;;;;;;;11.32;5.75;;;38.20;27.50;;;;;;4975205;28;20106;-85
2021/05/07 05:55:40;;;;;;;7.55;5.40;;;38.00;27.40;;;;;;4974825;28;20034;-85
2021/05/07 05:58:07;;;;;;;8.27;5.63;;;37.50;27.30;;;;;;4975229;28;20026;-85
2021/05/07 06:00:33;;;;;;;17.42;6.80;;;37.00;27.20;;;;;;4986996;28;20442;-84
2021/05/07 06:02:59;;;;;;;10.07;5.18;;;36.60;27.30;;;;;;4984936;28;20034;-85
2021/05/07 06:05:25;;;;;;;11.38;5.10;;;36.60;27.50;;;;;;4976722;28;20033;-85
2021/05/07 06:07:51;;;;;;;5.47;4.55;;;36.80;27.30;;;;;;4975029;28;20030;-85
2021/05/07 06:10:18;;;;;;;7.00;4.50;;;37.10;27.20;;;;;;4974677;28;20032;-84
2021/05/07 06:12:46;;;;;;;11.70;4.22;;;37.50;27.30;;;;;;4973337;28;20019;-85
2021/05/07 06:15:12;;;;;;;7.40;4.05;;;37.70;27.00;;;;;;4974984;28;20026;-85
2021/05/07 06:17:39;;;;;;;7.05;3.00;;;38.10;26.80;;;;;;4974802;28;20053;-85
2021/05/07 06:20:07;;;;;;;3.95;2.97;;;38.20;26.60;;;;;;5006295;28;20022;-85
2021/05/07 06:22:34;;;;;;;6.93;2.70;;;38.20;26.30;;;;;;4974840;28;20066;-85
2021/05/07 06:25:00;;;;;;;4.97;2.80;;;37.90;26.00;;;;;;4974728;28;20023;-85
2021/05/07 06:27:26;;;;;;;7.07;2.60;;;37.50;26.10;;;;;;5005877;28;20042;-85
2021/05/07 06:29:52;;;;;;;8.40;3.22;;;37.30;26.20;;;;;;4973940;28;20019;-86
2021/05/07 06:32:18;;;;;;;6.43;2.83;;;37.30;26.30;;;;;;4975152;28;20129;-85
2021/05/07 06:34:44;;;;;;;6.03;3.03;;;37.30;26.30;;;;;;4979346;28;20034;-85
2021/05/07 06:37:10;;;;;;;10.45;3.30;;;37.20;26.20;;;;;;4987244;28;20043;-85
2021/05/07 06:39:36;;;;;;;3.65;2.72;;;36.90;26.30;;;;;;4984845;28;20386;-86
2021/05/07 06:42:02;;;;;;;2.92;2.47;;;36.60;26.40;;;;;;4977295;28;20027;-86
2021/05/07 06:44:28;;;;;;;5.93;2.70;;;36.40;26.50;;;;;;4975913;28;20057;-85
2021/05/07 06:46:55;;;;;;;6.82;2.33;;;36.50;26.60;;;;;;5007917;28;20474;-86
2021/05/07 06:49:24;;;;;;;2.65;2.45;;;36.90;26.50;;;;;;5008155;28;20403;-86
2021/05/07 06:51:50;;;;;;;3.25;2.50;;;37.10;26.00;;;;;;4976125;28;20030;-85
2021/05/07 06:54:26;;;;;;;6.03;2.65;;;37.10;25.70;;;;;;4975098;28;20442;-85
2021/05/07 06:56:56;;;;;;;8.57;3.78;;;37.00;25.80;;;;;;4975173;28;20114;-80
2021/05/07 06:59:22;;;;;;;6.13;3.20;;;37.10;26.10;;;;;;4976046;28;20049;-85
2021/05/07 07:01:48;;;;;;;6.85;2.80;;;37.30;26.10;;;;;;4977711;28;20046;-86
2021/05/07 07:04:14;;;;;;;6.07;3.28;;;37.40;25.60;;;;;;5006504;28;20038;-86
2021/05/07 07:06:39;;;;;;;4.80;2.22;;;37.40;25.60;;;;;;4975825;28;20065;-86
2021/05/07 07:09:05;;;;;;;3.92;2.20;;;37.50;25.50;;;;;;5006513;28;20030;-86
2021/05/07 07:11:32;;;;;;;5.05;2.10;;;37.40;25.10;;;;;;4976860;28;20083;-86
2021/05/07 07:13:57;;;;;;;2.28;2.08;;;37.10;24.90;;;;;;5022287;28;20019;-85
2021/05/07 07:16:23;;;;;;;5.07;2.35;;;36.90;25.00;;;;;;4980673;28;20023;-87
2021/05/07 07:18:49;;;;;;;3.17;2.20;;;36.40;24.60;;;;;;4977729;28;20565;-86
2021/05/07 07:21:16;;;;;;;3.33;2.50;;;35.50;24.70;;;;;;5007723;28;20027;-87
2021/05/07 07:23:41;;;;;;;3.45;2.15;;;34.80;24.90;;;;;;4976796;28;20085;-87
2021/05/07 07:26:07;;;;;;;3.85;2.10;;;34.40;25.10;;;;;;4976767;28;20027;-88
2021/05/07 07:28:35;;;;;;;3.47;1.70;;;34.00;25.00;;;;;;4977777;28;20097;-88
2021/05/07 07:31:01;;;;;;;19.45;13.95;;;33.60;24.90;;;;;;5009879;28;20034;-87
2021/05/07 07:33:28;;;;;;;2.85;2.10;;;33.40;25.10;;;;;;4976120;28;20077;-85
2021/05/07 07:35:54;;;;;;;6.18;3.55;;;33.10;25.00;;;;;;4974521;28;20023;-83
2021/05/07 07:38:19;;;;;;;11.52;2.88;;;32.50;25.10;;;;;;4974689;28;20066;-83
2021/05/07 07:40:45;;;;;;;9.68;2.30;;;31.90;25.40;;;;;;4974884;28;20041;-84
2021/05/07 07:43:11;;;;;;;10.95;3.20;;;31.40;25.50;;;;;;4974196;28;20065;-86
2021/05/07 07:45:37;;;;;;;3.20;2.30;;;30.90;25.90;;;;;;5007589;28;20174;-86
2021/05/07 07:48:03;;;;;;;4.20;2.08;;;30.50;26.00;;;;;;4980432;28;20030;-84
2021/05/07 07:50:29;;;;;;;5.20;2.40;;;30.20;26.20;;;;;;5011169;28;20056;-86
2021/05/07 07:52:54;;;;;;;3.60;2.00;;;30.10;26.30;;;;;;4978955;28;20105;-87
2021/05/07 07:55:20;;;;;;;6.47;1.90;;;30.00;26.00;;;;;;4976576;28;20038;-86
2021/05/07 07:57:46;;;;;;;2.35;1.98;;;29.60;25.90;;;;;;4975862;28;20117;-84
2021/05/07 08:00:12;;;;;;;8.02;2.17;;;29.30;26.00;;;;;;4976233;28;20037;-85
2021/05/07 08:02:38;;;;;;;9.18;2.13;;;28.90;26.00;;;;;;4974886;28;20034;-86
2021/05/07 08:05:05;;;;;;;5.43;2.08;;;28.60;26.30;;;;;;4974209;28;20099;-85
2021/05/07 08:07:31;;;;;;;3.67;2.38;;;28.30;27.10;;;;;;5004972;28;20470;-85
2021/05/07 08:09:57;;;;;;;4.13;1.80;;;28.00;26.50;;;;;;4974430;28;20023;-84
2021/05/07 08:12:22;;;;;;;3.42;1.55;;;27.80;26.60;;;;;;4973834;28;20410;-83
2021/05/07 08:14:48;;;;;;;3.20;1.95;;;27.60;26.60;;;;;;4974437;28;20035;-85
2021/05/07 08:17:14;;;;;;;2.47;2.03;;;27.40;26.70;;;;;;4974999;28;20030;-87
2021/05/07 08:19:39;;;;;;;5.05;1.90;;;27.10;26.80;;;;;;4977050;28;20027;-90
2021/05/07 08:22:05;;;;;;;5.47;2.05;;;26.90;27.00;;;;;;4978685;28;20031;-80
2021/05/07 08:24:31;;;;;;;1.73;1.60;;;26.80;27.20;;;;;;4973761;28;20135;-79
2021/05/07 08:27:00;;;;;;;5.72;2.08;;;26.70;27.30;;;;;;5004706;28;20509;-83
2021/05/07 08:29:26;;;;;;;3.72;2.10;;;26.70;27.10;;;;;;4974369;28;20054;-85
2021/05/07 08:31:52;;;;;;;2.42;1.70;;;26.50;27.10;;;;;;4974147;28;20055;-83
2021/05/07 08:34:20;;;;;;;2.63;1.55;;;26.40;27.50;;;;;;4975512;28;20062;-81
2021/05/07 08:36:46;;;;;;;4.15;2.08;;;26.40;27.50;;;;;;4977087;28;20030;-83
2021/05/07 08:39:12;;;;;;;3.97;1.88;;;26.30;27.50;;;;;;4976321;28;20102;-82
2021/05/07 08:41:38;;;;;;;3.45;1.83;;;26.10;27.50;;;;;;5007580;28;20123;-82
2021/05/07 08:44:05;;;;;;;2.80;1.77;;;25.70;27.30;;;;;;4975719;28;20085;-82
2021/05/07 08:46:31;;;;;;;6.88;1.92;;;25.40;27.30;;;;;;5007229;28;20127;-81
2021/05/07 08:48:58;;;;;;;4.15;1.58;;;25.10;27.40;;;;;;4976935;28;20031;-85
2021/05/07 08:51:24;;;;;;;4.05;1.77;;;25.00;27.50;;;;;;4978401;28;20482;-85
2021/05/07 08:53:49;;;;;;;3.53;1.73;;;24.80;27.60;;;;;;4977548;28;20066;-80
2021/05/07 08:56:15;;;;;;;7.78;1.90;;;24.70;27.80;;;;;;4975766;28;20026;-80
2021/05/07 08:58:41;;;;;;;2.92;1.73;;;24.80;28.10;;;;;;4976193;28;20505;-80
2021/05/07 09:01:07;;;;;;;4.95;2.25;;;24.80;28.30;;;;;;4975344;28;20033;-82
2021/05/07 09:03:40;;;;;;;5.13;1.58;;;24.90;28.50;;;;;;5006878;28;20031;-81
2021/05/07 09:06:19;;;;;;;3.40;1.60;;;24.90;28.40;;;;;;4976095;28;20030;-81
2021/05/07 09:08:50;;;;;;;8.30;2.63;;;24.80;28.30;;;;;;4975533;28;20019;-81
2021/05/07 09:11:17;;;;;;;2.60;1.80;;;24.80;28.50;;;;;;4978026;28;20026;-82
2021/05/07 09:13:44;;;;;;;3.35;1.92;;;24.80;28.50;;;;;;5006669;28;20035;-81
2021/05/07 09:16:11;;;;;;;2.28;1.50;;;24.80;28.60;;;;;;4974413;28;20033;-81
2021/05/07 09:18:47;;;;;;;3.97;1.60;;;24.80;28.60;;;;;;4975637;28;20039;-80
2021/05/07 09:21:14;;;;;;;2.60;1.92;;;24.80;28.30;;;;;;5006817;28;20142;-78
2021/05/07 09:23:41;;;;;;;4.80;1.70;;;24.80;28.50;;;;;;4974715;28;20027;-76
2021/05/07 09:26:08;;;;;;;3.45;1.75;;;24.90;28.40;;;;;;4975029;28;20124;-78
2021/05/07 09:28:34;;;;;;;3.35;1.70;;;24.90;28.40;;;;;;4974766;28;20047;-78
2021/05/07 09:31:17;;;;;;;2.42;1.90;;;25.00;28.40;;;;;;4975053;28;20025;-77
2021/05/07 09:33:45;;;;;;;3.55;1.67;;;25.10;28.50;;;;;;4974963;28;20078;-77
2021/05/07 09:36:29;;;;;;;2.63;1.67;;;25.10;28.30;;;;;;4974860;28;20089;-77
2021/05/07 09:38:59;;;;;;;4.60;1.92;;;25.20;28.40;;;;;;4974903;28;20031;-77
2021/05/07 09:41:25;;;;;;;3.08;2.03;;;25.30;28.30;;;;;;4973612;28;20481;-77
2021/05/07 09:43:51;;;;;;;3.38;1.75;;;25.40;28.80;;;;;;4974591;28;20109;-77
2021/05/07 09:46:17;;;;;;;2.22;1.50;;;25.50;28.30;;;;;;5005052;28;20023;-78
2021/05/07 09:48:43;;;;;;;3.88;1.50;;;25.40;28.10;;;;;;4975118;28;20038;-82
2021/05/07 09:51:12;;;;;;;2.42;1.65;;;25.30;28.00;;;;;;4976092;28;20023;-82
2021/05/07 09:53:40;;;;;;;3.88;1.80;;;25.30;28.00;;;;;;4974200;28;20381;-77
2021/05/07 09:56:13;;;;;;;2.92;1.90;;;25.20;28.00;;;;;;5005730;28;20022;-76
2021/05/07 09:58:39;;;;;;;3.45;1.85;;;25.10;28.10;;;;;;4974020;28;20451;-74
2021/05/07 10:01:06;;;;;;;5.32;2.00;;;24.90;28.10;;;;;;5004629;28;20493;-78
2021/05/07 10:03:32;;;;;;;14.98;8.88;;;24.80;28.40;;;;;;4974043;28;20034;-80
2021/05/07 10:05:58;;;;;;;8.15;4.25;;;24.60;28.30;;;;;;4975396;28;20026;-79
2021/05/07 10:08:24;;;;;;;2.90;1.98;;;24.50;28.20;;;;;;4978466;28;20492;-79
2021/05/07 10:10:56;;;;;;;7.85;1.80;;;24.30;28.40;;;;;;4976994;28;20125;-81
2021/05/07 10:13:27;;;;;;;4.32;1.60;;;24.30;28.70;;;;;;4975439;28;20027;-78
2021/05/07 10:16:03;;;;;;;5.65;2.55;;;24.50;28.90;;;;;;4974592;28;20066;-80
2021/05/07 10:18:31;;;;;;;8.63;1.88;;;24.60;29.00;;;;;;5006808;28;20094;-79
2021/05/07 10:21:01;;;;;;;4.30;1.70;;;24.70;29.00;;;;;;4973850;28;20095;-80
2021/05/07 10:23:28;;;;;;;6.43;1.77;;;24.70;29.00;;;;;;4973880;28;20049;-80
2021/05/07 10:26:02;;;;;;;3.20;1.77;;;24.60;29.00;;;;;;4981147;28;20026;-89
2021/05/07 10:28:44;;;;;;;2.60;1.80;;;24.50;29.00;;;;;;4977016;28;20125;-89
2021/05/07 10:31:11;;;;;;;;;;;24.50;29.20;;;;;;5008474;28;20059;-89
2021/05/07 10:33:37;;;;;;;7.30;1.80;;;24.60;29.20;;;;;;4977368;28;19906;-88
2021/05/07 10:36:04;;;;;;;8.38;1.70;;;24.70;29.10;;;;;;4976925;28;20026;-85
2021/05/07 10:38:30;;;;;;;10.32;2.00;;;24.60;29.10;;;;;;4976589;28;20031;-86
2021/05/07 10:41:10;;;;;;;7.47;4.78;;;24.40;29.20;;;;;;4976109;28;20429;-86
2021/05/07 10:43:41;;;;;;;5.47;2.95;;;24.30;29.40;;;;;;4976099;28;20027;-87
2021/05/07 10:46:18;;;;;;;4.85;2.03;;;24.30;29.70;;;;;;4983289;28;20027;-85
2021/05/07 10:48:51;;;;;;;5.70;2.17;;;24.40;29.60;;;;;;4989864;28;20037;-87
2021/05/07 10:51:16;;;;;;;3.55;1.75;;;24.40;29.60;;;;;;4978384;28;20019;-89
2021/05/07 10:53:42;;;;;;;2.33;1.30;;;24.30;29.50;;;;;;4977028;28;20026;-86
2021/05/07 10:56:19;;;;;;;1.85;1.73;;;24.20;29.40;;;;;;5007144;28;20039;-86
2021/05/07 10:58:45;;;;;;;5.85;1.88;;;24.00;29.50;;;;;;4976895;28;20066;-86
2021/05/07 11:01:22;;;;;;;3.03;1.73;;;23.80;29.80;;;;;;4977505;28;20035;-86
2021/05/07 11:04:16;;;;;;;2.70;1.90;;;23.60;30.00;;;;;;5011317;28;20109;-87
2021/05/07 11:06:45;;;;;;;4.40;1.80;;;23.40;30.00;;;;;;4978543;28;20101;-87
2021/05/07 11:09:24;;;;;;;5.50;2.17;;;23.40;30.30;;;;;;4976898;28;20019;-88
2021/05/07 11:11:52;;;;;;;6.72;1.73;;;23.50;30.50;;;;;;4981961;28;20031;-87
2021/05/07 11:14:26;;;;;;;4.35;1.75;;;23.50;30.40;;;;;;4976858;28;20053;-87
2021/05/07 11:16:53;;;;;;;2.20;1.98;;;23.50;30.30;;;;;;4976816;28;20027;-86
2021/05/07 11:19:30;;;;;;;6.05;2.00;;;23.50;30.30;;;;;;4977533;28;20027;-87
2021/05/07 11:21:56;;;;;;;7.68;2.50;;;23.50;30.40;;;;;;5010008;28;20027;-90
2021/05/07 11:24:47;;;;;;;7.32;2.45;;;23.40;30.40;;;;;;4989498;28;20034;-86
2021/05/07 11:27:25;;;;;;;4.65;2.90;;;23.10;30.70;;;;;;5011249;28;20050;-86
2021/05/07 11:29:53;;;;;;;5.78;2.10;;;22.70;31.20;;;;;;5009205;28;20513;-87
2021/05/07 11:32:21;;;;;;;3.92;1.88;;;22.40;31.60;;;;;;4976911;28;20489;-88
2021/05/07 11:34:55;;;;;;;6.15;2.50;;;22.20;32.20;;;;;;4975707;28;20105;-89
2021/05/07 11:37:22;;;;;;;3.38;2.10;;;22.10;32.70;;;;;;4977475;28;20034;-88
2021/05/07 11:39:57;;;;;;;4.97;2.00;;;21.90;32.80;;;;;;4977492;28;20533;-89
2021/05/07 11:42:37;;;;;;;5.10;1.95;;;21.70;33.10;;;;;;4982814;28;20027;-89
2021/05/07 11:45:07;;;;;;;4.47;2.30;;;21.40;33.50;;;;;;5008979;28;20035;-87
2021/05/07 11:47:38;;;;;;;7.85;2.08;;;21.30;33.90;;;;;;4976367;28;20355;-89
2021/05/07 11:50:07;;;;;;;7.85;2.75;;;21.10;34.60;;;;;;4977547;28;20027;-88
2021/05/07 11:52:42;;;;;;;8.20;2.20;;;20.80;35.50;;;;;;4976651;28;20039;-87
2021/05/07 11:55:10;;;;;;;5.82;2.30;;;20.60;36.30;;;;;;5007931;28;20022;-89
2021/05/07 11:57:37;;;;;;;3.80;2.20;;;20.50;37.10;;;;;;4981544;28;20026;-86
2021/05/07 12:00:20;;;;;;;3.30;2.03;;;20.30;37.30;;;;;;5022722;28;20038;-86
2021/05/07 12:02:45;;;;;;;8.13;2.33;;;20.20;37.50;;;;;;5009157;28;20026;-87
2021/05/07 12:05:11;;;;;;;4.47;2.97;;;20.10;37.80;;;;;;4976888;28;20034;-87
2021/05/07 12:07:44;;;;;;;5.68;3.17;;;20.00;38.20;;;;;;4977306;28;20027;-89
2021/05/07 12:10:10;;;;;;;5.05;3.35;;;19.90;38.60;;;;;;5013896;28;20386;-87
2021/05/07 12:12:43;;;;;;;4.85;2.58;;;19.80;38.80;;;;;;5013312;28;20023;-87
2021/05/07 12:15:15;;;;;;;3.83;2.67;;;19.70;39.30;;;;;;5010982;28;20062;-88
2021/05/07 12:17:49;;;;;;;3.15;2.47;;;19.70;39.30;;;;;;4984828;28;20394;-87
2021/05/07 12:20:19;;;;;;;3.40;2.13;;;19.70;39.40;;;;;;5012028;28;20478;-87
2021/05/07 12:22:49;;;;;;;7.97;3.00;;;19.70;39.60;;;;;;4983327;28;20113;-86
2021/05/07 12:25:28;;;;;;;5.80;2.70;;;19.70;39.70;;;;;;4988788;28;20057;-87
2021/05/07 12:27:56;;;;;;;2.50;2.22;;;19.90;39.90;;;;;;5022504;28;20054;-87
2021/05/07 12:30:29;;;;;;;7.93;2.33;;;20.00;39.70;;;;;;4984798;28;20030;-89
2021/05/07 12:33:05;;;;;;;8.05;2.60;;;20.20;39.60;;;;;;4990708;28;20027;-89
2021/05/07 12:35:42;;;;;;;2.35;2.00;;;20.50;39.40;;;;;;5021499;28;20046;-89
2021/05/07 12:38:33;;;;;;;8.73;2.53;;;20.70;38.90;;;;;;4987944;28;20027;-88
2021/05/07 12:41:01;;;;;;;14.93;2.75;;;20.70;38.50;;;;;;5023770;28;20023;-87
2021/05/07 12:43:29;;;;;;;6.32;2.63;;;20.70;38.40;;;;;;5019545;28;20031;-89
2021/05/07 12:45:55;;;;;;;2.78;2.13;;;20.70;38.40;;;;;;5020400;28;20030;-87
2021/05/07 12:48:21;;;;;;;5.05;2.40;;;20.60;38.30;;;;;;4987836;28;20042;-88